Time;durP1;ratioP1;P1;durP2;ratioP2;P2;SDS_P1;SDS_P2;PMS_P1;PMS_P2;Temp;Humidity;BMP_temperature;BMP_pressure;BME280_temperature;BME280_humidity;BME280_pressure;Samples;Min_cycle;Max_cycle;Signal;HPM_P1;HPM_P2
2021/03/06 00:01:36;;;;;;;12.57;4.97;;;0.00;99.90;;;;;;5065175;28;20097;-75
2021/03/06 00:04:02;;;;;;;12.20;4.93;;;0.10;99.90;;;;;;5064710;28;20131;-74
2021/03/06 00:06:28;;;;;;;12.32;5.18;;;0.10;99.90;;;;;;5047881;28;20072;-74
2021/03/06 00:08:54;;;;;;;9.10;4.90;;;0.10;99.90;;;;;;5064709;28;20090;-75
2021/03/06 00:11:20;;;;;;;7.88;4.53;;;0.10;99.90;;;;;;5049194;28;20037;-72
2021/03/06 00:13:45;;;;;;;11.20;4.47;;;0.20;99.90;;;;;;5063662;28;20462;-73
2021/03/06 00:16:11;;;;;;;9.32;4.20;;;0.30;99.90;;;;;;5057184;28;20520;-77
2021/03/06 00:18:37;;;;;;;11.75;4.10;;;0.30;99.90;;;;;;5067685;28;20516;-74
2021/03/06 00:21:03;;;;;;;8.35;4.15;;;0.30;99.90;;;;;;5074684;28;20066;-77
2021/03/06 00:23:29;;;;;;;;;;;0.40;99.90;;;;;;5065331;28;20413;-74
2021/03/06 00:25:54;;;;;;;7.90;3.55;;;0.40;99.90;;;;;;5057676;28;19920;-74
2021/03/06 00:28:20;;;;;;;13.43;4.55;;;0.30;99.90;;;;;;5067424;28;20048;-73
2021/03/06 00:30:46;;;;;;;10.07;3.40;;;0.30;99.90;;;;;;5065371;28;20047;-73
2021/03/06 00:33:12;;;;;;;9.73;4.10;;;0.20;99.90;;;;;;5068187;28;20083;-75
2021/03/06 00:35:38;;;;;;;6.85;4.03;;;0.10;99.90;;;;;;5065452;28;20063;-77
2021/03/06 00:38:03;;;;;;;14.10;5.13;;;0.10;99.90;;;;;;5049774;28;20094;-76
2021/03/06 00:40:29;;;;;;;9.80;3.97;;;0.00;99.90;;;;;;5082110;28;20094;-75
2021/03/06 00:42:55;;;;;;;10.05;4.50;;;-0.10;99.90;;;;;;5062367;28;20041;-74
2021/03/06 00:45:21;;;;;;;12.75;4.00;;;-0.10;99.90;;;;;;5053813;28;20040;-72
2021/03/06 00:47:47;;;;;;;9.88;3.95;;;-0.10;99.90;;;;;;5058952;28;20124;-72
2021/03/06 00:50:29;;;;;;;7.15;4.55;;;-0.10;99.90;;;;;;5067732;28;20090;-71
2021/03/06 00:52:55;;;;;;;8.50;3.95;;;0.10;99.90;;;;;;5062140;28;20040;-73
2021/03/06 00:55:21;;;;;;;8.82;4.05;;;0.10;99.90;;;;;;5058271;28;20044;-73
2021/03/06 00:57:47;;;;;;;6.30;3.75;;;0.60;99.90;;;;;;5062096;28;20050;-72
2021/03/06 01:00:14;;;;;;;11.23;3.60;;;0.30;99.90;;;;;;5060686;28;20438;-73
2021/03/06 01:02:39;;;;;;;6.65;3.72;;;0.40;99.90;;;;;;5058424;28;20095;-74
2021/03/06 01:05:06;;;;;;;6.53;3.55;;;0.40;99.90;;;;;;5067501;28;20032;-73
2021/03/06 01:07:32;;;;;;;9.75;4.32;;;0.50;99.90;;;;;;5083342;28;20112;-72
2021/03/06 01:09:57;;;;;;;7.97;4.13;;;0.50;99.90;;;;;;5071227;28;20037;-73
2021/03/06 01:12:23;;;;;;;12.57;4.53;;;0.50;99.90;;;;;;5072147;28;20036;-71
2021/03/06 01:14:49;;;;;;;9.50;4.07;;;0.50;99.90;;;;;;5071624;28;20037;-74
2021/03/06 01:17:15;;;;;;;14.55;4.40;;;0.50;99.90;;;;;;5064946;28;20432;-73
2021/03/06 01:19:41;;;;;;;8.13;4.53;;;0.60;99.90;;;;;;5070076;28;20066;-73
2021/03/06 01:22:07;;;;;;;13.05;4.32;;;0.70;99.90;;;;;;5064625;28;20040;-73
2021/03/06 01:24:32;;;;;;;;;;;0.80;99.90;;;;;;5071037;28;20044;-72
2021/03/06 01:26:58;;;;;;;9.02;4.07;;;0.80;99.90;;;;;;5067562;28;19940;-72
2021/03/06 01:29:24;;;;;;;7.45;3.40;;;0.80;99.90;;;;;;5064699;28;20044;-73
2021/03/06 01:31:50;;;;;;;6.53;4.03;;;0.90;99.90;;;;;;5069640;28;20033;-74
2021/03/06 01:34:15;;;;;;;8.27;3.53;;;0.90;99.90;;;;;;5066606;28;20052;-75
2021/03/06 01:36:41;;;;;;;7.20;3.75;;;1.00;99.90;;;;;;5069480;28;20393;-75
2021/03/06 01:39:07;;;;;;;9.18;3.10;;;1.10;99.90;;;;;;5069677;28;20032;-73
2021/03/06 01:41:33;;;;;;;9.02;4.05;;;1.10;99.90;;;;;;5062605;28;20040;-76
2021/03/06 01:44:00;;;;;;;5.47;3.15;;;1.10;99.90;;;;;;5072022;28;20043;-74
2021/03/06 01:46:25;;;;;;;9.82;4.00;;;1.20;99.90;;;;;;5069572;28;20036;-75
2021/03/06 01:48:51;;;;;;;10.18;3.58;;;1.20;99.90;;;;;;5066221;28;20036;-74
2021/03/06 01:51:17;;;;;;;8.55;3.42;;;1.30;99.90;;;;;;5082789;28;20200;-71
2021/03/06 01:53:43;;;;;;;9.25;3.55;;;1.30;99.90;;;;;;5069895;28;20397;-71
2021/03/06 01:56:09;;;;;;;8.88;3.08;;;1.30;99.90;;;;;;5067694;28;20044;-74
2021/03/06 01:58:35;;;;;;;8.98;3.67;;;1.30;99.90;;;;;;5075362;28;20438;-73
2021/03/06 02:01:01;;;;;;;6.95;3.13;;;1.40;99.90;;;;;;5086124;28;20046;-73
2021/03/06 02:03:27;;;;;;;7.25;3.10;;;1.40;99.90;;;;;;5086696;28;20067;-73
2021/03/06 02:05:53;;;;;;;8.15;3.47;;;1.40;99.90;;;;;;5059842;28;20060;-73
2021/03/06 02:08:19;;;;;;;9.75;3.47;;;1.40;99.90;;;;;;5069500;28;20036;-74
2021/03/06 02:10:44;;;;;;;6.28;3.83;;;1.40;99.90;;;;;;5068775;28;20055;-72
2021/03/06 02:13:31;;;;;;;6.57;2.88;;;1.40;99.90;;;;;;5071236;28;20040;-73
2021/03/06 02:16:09;;;;;;;8.68;3.45;;;1.40;99.90;;;;;;5053052;28;20046;-71
2021/03/06 02:18:41;;;;;;;8.15;3.70;;;1.40;99.90;;;;;;5069305;28;20058;-73
2021/03/06 02:21:07;;;;;;;6.28;3.42;;;1.40;99.90;;;;;;5065760;28;20036;-70
2021/03/06 02:23:47;;;;;;;6.82;3.10;;;1.40;99.90;;;;;;5070158;28;20036;-74
2021/03/06 02:26:44;;;;;;;11.90;3.55;;;1.50;99.90;;;;;;5057505;28;20540;-72
2021/03/06 02:29:31;;;;;;;9.82;3.15;;;1.50;99.90;;;;;;5061579;28;20115;-73
2021/03/06 02:32:18;;;;;;;8.38;3.10;;;1.50;99.90;;;;;;5069211;28;20059;-73
2021/03/06 02:34:49;;;;;;;8.65;3.03;;;1.50;99.90;;;;;;5067909;28;20059;-74
2021/03/06 02:37:20;;;;;;;7.78;2.90;;;1.60;99.90;;;;;;5086066;28;20037;-73
2021/03/06 02:39:49;;;;;;;7.35;3.20;;;1.60;99.90;;;;;;5059999;28;20046;-73
2021/03/06 02:42:19;;;;;;;6.75;3.30;;;1.60;99.90;;;;;;5064404;28;20040;-74
2021/03/06 02:44:46;;;;;;;8.13;2.67;;;1.60;99.90;;;;;;5066419;28;20078;-74
2021/03/06 02:47:12;;;;;;;9.80;3.25;;;1.60;99.90;;;;;;5063275;28;20056;-75
2021/03/06 02:49:38;;;;;;;9.55;3.05;;;1.60;99.90;;;;;;5069430;28;20040;-75
2021/03/06 02:52:04;;;;;;;6.60;3.20;;;1.70;99.90;;;;;;5070205;28;20040;-72
2021/03/06 02:54:30;;;;;;;6.03;2.60;;;1.70;99.90;;;;;;5065807;28;20107;-76
2021/03/06 02:56:56;;;;;;;7.60;2.90;;;1.80;99.90;;;;;;5062356;28;20111;-75
2021/03/06 02:59:52;;;;;;;9.70;3.45;;;1.80;99.90;;;;;;5067539;28;20051;-73
2021/03/06 03:02:56;;;;;;;7.72;2.75;;;1.80;99.90;;;;;;5061057;28;20036;-75
2021/03/06 03:05:31;;;;;;;10.68;3.75;;;1.80;99.90;;;;;;5014587;28;20040;-74
2021/03/06 03:08:18;;;;;;;8.93;3.25;;;1.80;99.90;;;;;;5063219;28;20055;-74
2021/03/06 03:10:53;;;;;;;7.72;3.17;;;1.80;99.90;;;;;;5083312;28;20055;-74
2021/03/06 03:13:40;;;;;;;7.78;3.17;;;1.80;99.90;;;;;;5076022;28;20047;-74
2021/03/06 03:16:14;;;;;;;7.55;3.75;;;1.80;99.90;;;;;;5080562;28;20484;-72
2021/03/06 03:18:53;;;;;;;6.30;3.38;;;1.80;99.90;;;;;;5064727;28;20530;-75
2021/03/06 03:21:22;;;;;;;7.40;3.22;;;1.80;99.90;;;;;;5068360;28;20078;-75
2021/03/06 03:24:01;;;;;;;9.02;3.08;;;1.80;99.90;;;;;;5057910;28;20044;-74
2021/03/06 03:26:28;;;;;;;6.18;3.15;;;1.90;99.90;;;;;;5056127;28;20056;-74
2021/03/06 03:28:55;;;;;;;7.50;3.63;;;1.90;99.90;;;;;;5059407;28;20051;-72
2021/03/06 03:31:24;;;;;;;8.63;3.38;;;1.90;99.90;;;;;;5058780;28;20036;-72
2021/03/06 03:33:51;;;;;;;5.60;3.00;;;1.90;99.90;;;;;;5067161;28;20481;-72
2021/03/06 03:36:20;;;;;;;13.50;3.50;;;1.90;99.90;;;;;;5065516;28;20327;-73
2021/03/06 03:38:46;;;;;;;6.22;3.28;;;1.90;99.90;;;;;;5062664;28;20040;-74
2021/03/06 03:41:13;;;;;;;8.20;3.28;;;1.90;99.90;;;;;;5054376;28;20115;-72
2021/03/06 03:43:41;;;;;;;6.20;3.00;;;1.90;99.90;;;;;;5066310;28;20055;-75
2021/03/06 03:46:07;;;;;;;11.85;3.78;;;2.00;99.90;;;;;;5066779;28;20117;-74
2021/03/06 03:48:37;;;;;;;8.25;3.78;;;2.00;99.90;;;;;;5058404;28;20589;-77
2021/03/06 03:51:03;;;;;;;10.98;2.97;;;2.30;99.90;;;;;;5073847;28;20044;-75
2021/03/06 03:53:30;;;;;;;6.05;3.40;;;2.00;99.90;;;;;;5073031;28;20174;-72
2021/03/06 03:56:01;;;;;;;7.18;3.50;;;2.00;99.90;;;;;;5066819;28;20191;-72
2021/03/06 03:58:27;;;;;;;12.30;3.13;;;2.00;99.90;;;;;;5073685;28;20040;-76
2021/03/06 04:01:01;;;;;;;5.90;2.78;;;2.10;99.90;;;;;;5069034;28;20044;-74
2021/03/06 04:03:30;;;;;;;8.38;3.17;;;2.10;99.90;;;;;;5073148;28;20037;-75
2021/03/06 04:05:57;;;;;;;6.53;3.28;;;2.10;99.90;;;;;;5070445;28;20357;-73
2021/03/06 04:08:23;;;;;;;5.63;3.22;;;2.10;99.90;;;;;;5073625;28;20450;-75
2021/03/06 04:10:49;;;;;;;9.27;3.30;;;2.10;99.90;;;;;;5061079;28;20072;-73
2021/03/06 04:13:14;;;;;;;8.15;2.85;;;2.10;99.90;;;;;;5071471;28;20067;-73
2021/03/06 04:15:40;;;;;;;6.82;2.88;;;2.10;99.90;;;;;;5061752;28;20402;-75
2021/03/06 04:18:07;;;;;;;4.65;3.33;;;2.10;99.90;;;;;;5070499;28;20036;-75
2021/03/06 04:20:33;;;;;;;8.25;3.15;;;2.20;99.90;;;;;;5063295;28;20056;-74
2021/03/06 04:23:00;;;;;;;7.70;3.20;;;2.20;99.90;;;;;;5071174;28;20375;-73
2021/03/06 04:25:26;;;;;;;7.85;3.50;;;2.20;99.90;;;;;;5067673;28;20059;-73
2021/03/06 04:27:53;;;;;;;6.43;3.38;;;2.20;99.90;;;;;;5062168;28;20436;-75
2021/03/06 04:30:19;;;;;;;8.38;3.88;;;2.20;99.90;;;;;;5072246;28;20036;-75
2021/03/06 04:32:45;;;;;;;11.43;3.92;;;2.20;99.90;;;;;;5050086;28;20474;-75
2021/03/06 04:35:11;;;;;;;5.75;3.33;;;2.20;99.90;;;;;;5076524;28;20029;-75
2021/03/06 04:37:38;;;;;;;;;;;2.20;99.90;;;;;;5071550;28;20032;-75
2021/03/06 04:40:06;;;;;;;11.33;3.03;;;2.20;99.90;;;;;;5080008;28;19939;-75
2021/03/06 04:42:31;;;;;;;9.10;3.58;;;2.10;99.90;;;;;;5083687;28;20044;-75
2021/03/06 04:44:57;;;;;;;7.10;3.20;;;2.10;99.90;;;;;;5071983;28;20086;-72
2021/03/06 04:47:23;;;;;;;8.48;3.25;;;2.10;99.90;;;;;;5069629;28;20033;-76
2021/03/06 04:49:49;;;;;;;5.53;3.30;;;2.10;99.90;;;;;;5067027;28;20123;-74
2021/03/06 04:52:15;;;;;;;11.70;3.90;;;2.10;99.90;;;;;;5065350;28;20314;-76
2021/03/06 04:54:41;;;;;;;6.38;3.33;;;2.10;99.90;;;;;;5066467;28;20048;-73
2021/03/06 04:57:07;;;;;;;8.20;3.83;;;2.10;99.90;;;;;;5067995;28;20335;-75
2021/03/06 04:59:33;;;;;;;7.60;3.35;;;2.10;99.90;;;;;;5083030;28;20047;-76
2021/03/06 05:02:00;;;;;;;9.20;3.53;;;2.00;99.90;;;;;;5070883;28;20040;-74
2021/03/06 05:04:26;;;;;;;6.40;3.33;;;2.00;99.90;;;;;;5067093;28;20055;-76
2021/03/06 05:06:51;;;;;;;11.27;4.28;;;2.00;99.90;;;;;;5071034;28;20171;-75
2021/03/06 05:09:17;;;;;;;6.05;3.60;;;2.10;99.90;;;;;;5060100;28;20489;-73
2021/03/06 05:11:43;;;;;;;7.97;3.78;;;2.10;99.90;;;;;;5069960;28;20116;-75
2021/03/06 05:14:09;;;;;;;5.38;3.13;;;2.10;99.90;;;;;;5085726;28;20393;-74
2021/03/06 05:16:35;;;;;;;8.60;4.13;;;2.10;99.90;;;;;;5067939;28;20037;-75
2021/03/06 05:19:02;;;;;;;8.23;3.33;;;2.10;99.90;;;;;;5071256;28;20927;-73
2021/03/06 05:21:28;;;;;;;10.88;3.88;;;2.10;99.90;;;;;;5068223;28;20037;-73
2021/03/06 05:23:54;;;;;;;18.10;3.88;;;2.20;99.90;;;;;;5069103;28;20043;-75
2021/03/06 05:26:20;;;;;;;7.28;4.03;;;2.10;99.90;;;;;;5067953;28;20037;-73
2021/03/06 05:28:45;;;;;;;11.25;4.20;;;2.40;99.90;;;;;;5071459;28;20131;-74
2021/03/06 05:31:11;;;;;;;5.88;4.00;;;2.10;99.90;;;;;;5070037;28;20032;-75
2021/03/06 05:33:37;;;;;;;9.45;3.70;;;2.10;99.90;;;;;;5071724;28;20090;-75
2021/03/06 05:36:03;;;;;;;7.38;4.63;;;2.10;99.90;;;;;;5084300;28;20115;-74
2021/03/06 05:38:29;;;;;;;;;;;2.10;99.90;;;;;;5065106;28;20474;-72
2021/03/06 05:40:55;;;;;;;8.80;3.78;;;2.10;99.90;;;;;;5070517;28;20011;-72
2021/03/06 05:43:21;;;;;;;8.27;3.65;;;2.00;99.90;;;;;;5066693;28;20123;-73
2021/03/06 05:45:49;;;;;;;9.07;4.03;;;2.00;99.90;;;;;;5071255;28;20112;-75
2021/03/06 05:48:18;;;;;;;10.15;4.18;;;2.00;99.90;;;;;;5060690;28;20065;-72
2021/03/06 05:50:46;;;;;;;6.00;3.42;;;2.00;99.90;;;;;;5070978;28;20082;-71
2021/03/06 05:53:15;;;;;;;7.97;3.13;;;2.00;99.90;;;;;;5068421;28;20033;-73
2021/03/06 05:55:43;;;;;;;6.57;3.60;;;2.00;99.90;;;;;;5071343;28;20032;-77
2021/03/06 05:58:09;;;;;;;5.60;3.50;;;2.10;99.90;;;;;;5068976;28;20048;-75
2021/03/06 06:00:42;;;;;;;12.57;3.40;;;2.90;99.90;;;;;;5067552;28;20106;-73
2021/03/06 06:03:10;;;;;;;15.35;3.17;;;2.10;99.90;;;;;;5066864;28;20078;-75
2021/03/06 06:05:36;;;;;;;10.52;3.05;;;2.10;99.90;;;;;;5086413;28;20036;-75
2021/03/06 06:08:04;;;;;;;7.75;3.15;;;2.10;99.90;;;;;;5065761;28;20047;-74
2021/03/06 06:10:31;;;;;;;5.57;2.90;;;2.10;99.90;;;;;;5069779;28;20470;-75
2021/03/06 06:12:59;;;;;;;6.00;3.20;;;2.10;99.90;;;;;;5068131;28;20086;-76
2021/03/06 06:15:25;;;;;;;8.02;3.30;;;2.10;99.90;;;;;;5066033;28;20037;-75
2021/03/06 06:17:51;;;;;;;9.25;3.40;;;2.00;99.90;;;;;;5059005;28;20036;-74
2021/03/06 06:20:18;;;;;;;8.40;3.38;;;2.00;99.90;;;;;;5069470;28;20545;-73
2021/03/06 06:22:44;;;;;;;7.18;3.00;;;2.10;99.90;;;;;;5069424;28;20055;-74
2021/03/06 06:25:29;;;;;;;6.72;2.88;;;2.10;99.90;;;;;;5070331;28;20040;-76
2021/03/06 06:28:02;;;;;;;7.28;2.72;;;2.10;99.90;;;;;;5061649;28;20056;-77
2021/03/06 06:30:28;;;;;;;5.18;2.75;;;2.10;99.90;;;;;;5067811;28;20049;-73
2021/03/06 06:32:54;;;;;;;7.05;3.45;;;2.00;99.90;;;;;;5062837;28;20032;-76
2021/03/06 06:35:19;;;;;;;9.63;3.17;;;2.10;99.90;;;;;;5069128;28;20115;-73
2021/03/06 06:37:58;;;;;;;5.85;2.85;;;2.10;99.90;;;;;;5065299;28;20419;-75
2021/03/06 06:40:27;;;;;;;10.63;2.95;;;2.10;99.90;;;;;;5061145;28;20425;-74
2021/03/06 06:42:53;;;;;;;7.65;2.90;;;2.10;99.90;;;;;;5062221;28;20044;-76
2021/03/06 06:45:19;;;;;;;6.03;2.92;;;2.10;99.90;;;;;;5084265;28;20429;-74
2021/03/06 06:47:47;;;;;;;;;;;2.20;99.90;;;;;;5064039;28;20520;-76
2021/03/06 06:50:14;;;;;;;6.47;3.05;;;2.20;99.90;;;;;;5068580;28;19917;-75
2021/03/06 06:52:44;;;;;;;7.22;3.20;;;2.20;99.90;;;;;;5068854;28;20470;-74
2021/03/06 06:55:12;;;;;;;5.78;2.63;;;2.30;99.90;;;;;;5068848;28;20473;-73
2021/03/06 06:57:52;;;;;;;4.05;2.67;;;2.30;99.90;;;;;;5064482;28;20044;-76
2021/03/06 07:00:19;;;;;;;6.05;2.67;;;2.30;99.90;;;;;;5070630;28;20182;-73
2021/03/06 07:02:57;;;;;;;6.60;2.75;;;2.30;99.90;;;;;;5061737;28;20053;-78
2021/03/06 07:05:38;;;;;;;6.53;2.67;;;2.50;99.90;;;;;;5064755;28;20036;-76
2021/03/06 07:08:06;;;;;;;7.82;2.90;;;2.40;99.90;;;;;;5069724;28;20044;-74
2021/03/06 07:10:36;;;;;;;6.22;2.58;;;2.40;99.90;;;;;;5064556;28;20040;-75
2021/03/06 07:17:00;;;;;;;4.10;2.85;;;2.50;99.90;;;;;;5063500;28;20549;-75
2021/03/06 07:19:30;;;;;;;5.70;2.90;;;2.50;99.90;;;;;;5060795;28;20086;-75
2021/03/06 07:21:58;;;;;;;6.28;2.53;;;2.60;99.90;;;;;;5058703;28;20033;-76
2021/03/06 07:24:25;;;;;;;4.95;2.75;;;2.60;99.90;;;;;;5065293;28;20044;-78
2021/03/06 07:26:52;;;;;;;5.78;3.08;;;2.60;99.90;;;;;;5050204;28;20044;-73
2021/03/06 07:29:28;;;;;;;6.45;2.60;;;2.70;99.90;;;;;;5067580;28;20044;-75
2021/03/06 07:31:55;;;;;;;;;;;2.70;99.90;;;;;;5079532;28;20083;-76
2021/03/06 07:34:25;;;;;;;6.33;2.70;;;2.70;99.90;;;;;;5070102;28;20379;-74
2021/03/06 07:36:57;;;;;;;9.60;2.92;;;2.80;99.90;;;;;;5056227;28;20502;-73
2021/03/06 07:39:31;;;;;;;6.38;2.90;;;2.90;99.90;;;;;;5057308;28;20527;-76
2021/03/06 07:42:00;;;;;;;4.65;2.85;;;3.00;99.90;;;;;;5045748;28;20037;-73
2021/03/06 07:44:28;;;;;;;5.55;2.63;;;3.00;99.90;;;;;;5047611;28;20114;-76
2021/03/06 07:46:56;;;;;;;4.65;2.47;;;3.10;99.90;;;;;;5048078;28;20041;-73
2021/03/06 07:49:28;;;;;;;5.80;3.00;;;3.10;99.90;;;;;;5048470;28;20045;-72
2021/03/06 07:51:56;;;;;;;6.03;2.92;;;3.20;99.90;;;;;;5042557;28;20033;-75
2021/03/06 07:54:24;;;;;;;7.03;2.70;;;3.20;99.90;;;;;;5027065;28;20429;-75
2021/03/06 07:56:50;;;;;;;5.70;2.70;;;3.30;99.90;;;;;;5042116;28;20045;-75
2021/03/06 07:59:16;;;;;;;4.43;2.60;;;3.30;99.90;;;;;;5046939;28;20102;-75
2021/03/06 08:01:43;;;;;;;8.90;2.95;;;3.40;99.90;;;;;;5039717;28;20041;-73
2021/03/06 08:04:35;;;;;;;5.68;2.75;;;3.30;99.90;;;;;;5043499;28;20037;-74
2021/03/06 08:07:11;;;;;;;3.42;2.30;;;3.50;99.90;;;;;;5036255;28;20042;-75
2021/03/06 08:10:00;;;;;;;4.32;2.67;;;3.50;99.90;;;;;;5042393;28;20045;-73
2021/03/06 08:12:33;;;;;;;4.30;2.58;;;3.50;99.90;;;;;;5019103;28;20029;-74
2021/03/06 08:14:59;;;;;;;4.20;2.83;;;3.60;99.90;;;;;;5042277;28;20040;-73
2021/03/06 08:17:32;;;;;;;4.82;2.95;;;3.70;99.90;;;;;;5033306;28;20037;-75
2021/03/06 08:19:59;;;;;;;7.57;3.03;;;3.80;99.90;;;;;;5041833;28;20045;-73
2021/03/06 08:22:24;;;;;;;7.00;2.90;;;3.80;99.90;;;;;;5020787;28;20109;-75
2021/03/06 08:24:50;;;;;;;6.18;2.33;;;3.80;99.90;;;;;;5045861;28;20132;-74
2021/03/06 08:27:17;;;;;;;6.38;3.10;;;3.90;99.90;;;;;;5022629;28;20371;-75
2021/03/06 08:29:53;;;;;;;4.63;2.75;;;3.90;99.90;;;;;;5047204;28;20405;-78
2021/03/06 08:32:31;;;;;;;7.28;2.90;;;4.00;99.90;;;;;;5031124;28;20115;-73
2021/03/06 08:35:21;;;;;;;5.65;2.78;;;4.00;99.90;;;;;;5049727;28;20470;-76
2021/03/06 08:37:49;;;;;;;6.32;2.80;;;4.00;99.90;;;;;;5038182;28;20053;-76
2021/03/06 08:40:20;;;;;;;5.35;3.00;;;4.00;99.90;;;;;;5041534;28;20188;-77
2021/03/06 08:42:49;;;;;;;6.13;3.60;;;4.10;99.90;;;;;;5048224;28;20110;-76
2021/03/06 08:45:20;;;;;;;6.55;2.75;;;4.10;99.90;;;;;;5049616;28;20067;-74
2021/03/06 08:48:06;;;;;;;6.78;3.30;;;4.10;99.90;;;;;;5041561;28;20037;-71
2021/03/06 08:50:35;;;;;;;5.15;2.67;;;4.10;99.90;;;;;;5047622;28;20068;-72
2021/03/06 08:53:04;;;;;;;7.15;2.95;;;4.00;99.90;;;;;;5041815;28;20033;-73
2021/03/06 08:55:32;;;;;;;8.13;2.55;;;4.10;99.90;;;;;;5043296;28;20040;-74
2021/03/06 08:58:02;;;;;;;6.53;3.08;;;4.20;99.90;;;;;;5047963;28;20029;-76
2021/03/06 09:00:40;;;;;;;6.30;3.45;;;4.20;99.90;;;;;;5050435;28;20478;-77
2021/03/06 09:03:26;;;;;;;5.07;2.70;;;4.30;99.90;;;;;;5045924;28;20501;-73
2021/03/06 09:05:55;;;;;;;5.18;2.65;;;4.40;99.90;;;;;;5048039;28;20052;-74
2021/03/06 09:08:26;;;;;;;7.60;2.95;;;4.50;99.90;;;;;;5050551;28;20136;-75
2021/03/06 09:10:56;;;;;;;4.47;2.15;;;4.60;99.90;;;;;;5047855;28;20420;-76
2021/03/06 09:13:23;;;;;;;4.32;2.72;;;4.70;99.90;;;;;;5044333;28;20037;-73
2021/03/06 09:15:53;;;;;;;4.63;2.00;;;4.80;99.90;;;;;;5022302;28;20072;-74
2021/03/06 09:18:24;;;;;;;5.80;1.80;;;4.90;99.90;;;;;;5046431;28;20537;-75
2021/03/06 09:21:00;;;;;;;3.28;1.23;;;5.10;99.90;;;;;;5041632;28;20048;-74
2021/03/06 09:23:35;;;;;;;4.85;1.55;;;5.30;99.90;;;;;;5043844;28;20029;-74
2021/03/06 09:26:16;;;;;;;2.47;1.30;;;5.40;99.90;;;;;;5043195;28;20056;-73
2021/03/06 09:28:42;;;;;;;6.72;1.60;;;5.50;99.90;;;;;;5042200;28;20581;-77
2021/03/06 09:31:14;;;;;;;3.03;1.25;;;5.60;99.90;;;;;;5051953;28;20367;-73
2021/03/06 09:33:40;;;;;;;2.38;1.48;;;6.00;99.90;;;;;;5045889;28;20492;-75
2021/03/06 09:36:06;;;;;;;3.28;1.67;;;6.00;99.90;;;;;;5044445;28;20036;-74
2021/03/06 09:38:33;;;;;;;3.28;1.33;;;5.90;99.90;;;;;;5050927;28;20115;-75
2021/03/06 09:41:00;;;;;;;2.55;1.30;;;5.90;99.90;;;;;;5036260;28;20041;-75
2021/03/06 09:43:32;;;;;;;5.05;1.50;;;5.80;99.90;;;;;;5020392;28;20049;-77
2021/03/06 09:45:59;;;;;;;2.72;1.33;;;5.70;99.90;;;;;;5050627;28;20072;-74
2021/03/06 09:48:26;;;;;;;3.22;1.40;;;5.80;99.90;;;;;;5047867;28;20122;-77
2021/03/06 09:50:54;;;;;;;1.90;1.17;;;5.80;99.90;;;;;;5051693;28;20067;-75
2021/03/06 09:53:28;;;;;;;3.47;1.80;;;5.80;99.90;;;;;;5048148;28;20447;-77
2021/03/06 09:56:13;;;;;;;3.33;1.40;;;5.80;99.90;;;;;;5047187;28;20039;-74
2021/03/06 09:58:40;;;;;;;3.75;1.77;;;5.70;99.90;;;;;;5050081;28;20052;-77
2021/03/06 10:01:19;;;;;;;2.63;1.55;;;5.70;99.90;;;;;;5048692;28;20033;-77
2021/03/06 10:03:46;;;;;;;3.28;1.58;;;5.80;99.90;;;;;;5034453;28;20067;-76
2021/03/06 10:06:17;;;;;;;3.63;1.90;;;5.90;99.90;;;;;;5038389;28;20037;-75
2021/03/06 10:08:55;;;;;;;6.00;1.90;;;6.00;99.90;;;;;;5046556;28;20055;-76
2021/03/06 10:11:33;;;;;;;4.90;2.15;;;6.20;99.90;;;;;;5037960;28;20101;-75
2021/03/06 10:14:00;;;;;;;3.38;1.70;;;6.20;99.90;;;;;;5032085;28;20075;-75
2021/03/06 10:16:27;;;;;;;3.88;1.83;;;6.20;99.90;;;;;;5048172;28;20094;-74
2021/03/06 10:18:59;;;;;;;4.00;1.83;;;6.20;99.90;;;;;;5030694;28;20040;-75
2021/03/06 10:21:25;;;;;;;5.15;2.03;;;6.10;99.90;;;;;;5043293;28;20124;-77
2021/03/06 10:23:51;;;;;;;4.57;1.60;;;6.00;99.90;;;;;;5048283;28;20115;-76
2021/03/06 10:26:24;;;;;;;5.10;1.55;;;6.00;99.90;;;;;;5032810;28;20040;-75
2021/03/06 10:29:01;;;;;;;5.95;2.35;;;6.10;99.90;;;;;;5046007;28;20522;-75
2021/03/06 10:31:38;;;;;;;6.75;1.75;;;6.20;99.90;;;;;;5037190;28;20056;-73
2021/03/06 10:34:19;;;;;;;4.25;1.75;;;6.30;99.90;;;;;;5041275;28;20041;-76
2021/03/06 10:37:04;;;;;;;5.60;1.67;;;6.40;99.90;;;;;;5045802;28;20159;-76
2021/03/06 10:39:30;;;;;;;7.30;1.70;;;6.30;99.90;;;;;;5021397;28;20052;-78
2021/03/06 10:41:57;;;;;;;4.03;1.90;;;6.40;99.90;;;;;;5026443;28;20060;-76
2021/03/06 10:44:23;;;;;;;4.10;2.00;;;6.30;99.90;;;;;;5049825;28;20037;-77
2021/03/06 10:46:59;;;;;;;4.50;2.20;;;6.30;99.90;;;;;;5025127;28;20040;-76
2021/03/06 10:49:46;;;;;;;5.38;2.00;;;6.30;99.90;;;;;;5042737;28;20033;-75
2021/03/06 10:52:29;;;;;;;4.78;2.00;;;6.30;99.90;;;;;;5048227;28;20068;-74
2021/03/06 10:54:57;;;;;;;5.88;2.20;;;6.40;99.90;;;;;;5049603;28;20052;-74
2021/03/06 10:57:25;;;;;;;5.20;1.98;;;6.40;99.90;;;;;;5047239;28;20037;-74
2021/03/06 10:59:51;;;;;;;4.47;2.00;;;5.90;99.90;;;;;;5032624;28;20061;-72
2021/03/06 11:02:29;;;;;;;5.57;2.00;;;6.50;99.90;;;;;;5049708;28;20087;-74
2021/03/06 11:05:14;;;;;;;3.92;1.80;;;6.70;99.90;;;;;;5050754;28;20122;-73
2021/03/06 11:07:40;;;;;;;5.30;2.25;;;6.80;99.90;;;;;;5029141;28;20041;-74
2021/03/06 11:10:06;;;;;;;4.53;1.70;;;6.80;99.90;;;;;;5032536;28;20051;-72
2021/03/06 11:12:33;;;;;;;3.75;1.80;;;7.10;99.90;;;;;;5048221;28;20040;-74
2021/03/06 11:15:05;;;;;;;5.13;2.10;;;7.30;99.90;;;;;;5048206;28;20041;-74
2021/03/06 11:17:31;;;;;;;4.15;2.97;;;7.30;99.90;;;;;;5049019;28;20037;-74
2021/03/06 11:19:57;;;;;;;7.15;3.25;;;7.20;99.90;;;;;;5050591;28;20095;-76
2021/03/06 11:22:23;;;;;;;11.82;5.43;;;6.90;99.90;;;;;;5032144;28;20539;-76
2021/03/06 11:24:48;;;;;;;8.60;2.47;;;6.70;99.90;;;;;;5049757;28;20064;-72
2021/03/06 11:27:14;;;;;;;5.22;3.40;;;6.60;99.90;;;;;;5049614;28;20068;-74
2021/03/06 11:29:40;;;;;;;6.07;2.47;;;6.50;99.90;;;;;;5044240;28;20757;-75
2021/03/06 11:32:06;;;;;;;4.15;1.90;;;6.50;99.90;;;;;;5049519;28;20040;-77
2021/03/06 11:34:32;;;;;;;4.72;1.90;;;6.50;99.90;;;;;;5049564;28;20090;-73
2021/03/06 11:36:57;;;;;;;6.15;2.10;;;6.60;99.90;;;;;;5032684;28;20482;-75
2021/03/06 11:39:23;;;;;;;4.20;2.40;;;6.50;99.90;;;;;;5032291;28;20060;-72
2021/03/06 11:41:49;;;;;;;5.78;2.15;;;6.40;99.90;;;;;;5014274;28;20103;-72
2021/03/06 11:44:15;;;;;;;6.45;3.47;;;6.50;99.90;;;;;;5050160;28;20061;-75
2021/03/06 11:46:41;;;;;;;5.78;2.97;;;6.50;99.90;;;;;;5031241;28;20044;-73
2021/03/06 11:49:07;;;;;;;6.20;2.25;;;6.50;99.90;;;;;;5049364;28;20037;-72
2021/03/06 11:51:34;;;;;;;4.22;2.22;;;6.60;99.90;;;;;;5049313;28;20033;-74
2021/03/06 11:54:00;;;;;;;7.93;3.55;;;6.50;99.90;;;;;;5048946;28;20041;-76
2021/03/06 11:56:26;;;;;;;5.15;2.42;;;6.60;99.90;;;;;;5048004;28;20037;-74
2021/03/06 11:58:52;;;;;;;4.65;2.25;;;6.70;99.90;;;;;;5049337;28;20041;-74
2021/03/06 12:01:17;;;;;;;4.88;2.42;;;6.70;99.90;;;;;;5031903;28;20154;-74
2021/03/06 12:03:43;;;;;;;5.95;2.20;;;6.80;99.90;;;;;;5047745;28;20044;-73
2021/03/06 12:06:09;;;;;;;6.15;2.45;;;7.00;99.90;;;;;;5031949;28;20044;-72
2021/03/06 12:08:35;;;;;;;3.75;1.83;;;6.90;99.90;;;;;;5033960;28;20501;-72
2021/03/06 12:11:04;;;;;;;6.25;2.38;;;6.80;99.90;;;;;;5036136;28;20043;-75
2021/03/06 12:13:31;;;;;;;7.28;2.00;;;6.90;99.90;;;;;;5053162;28;20124;-75
2021/03/06 12:15:58;;;;;;;5.53;1.90;;;7.00;99.90;;;;;;5053762;28;20033;-75
2021/03/06 12:18:24;;;;;;;5.25;2.63;;;7.20;99.90;;;;;;5051461;28;20474;-75
2021/03/06 12:20:50;;;;;;;4.28;2.00;;;7.30;99.90;;;;;;5031774;28;20072;-73
2021/03/06 12:23:16;;;;;;;6.15;2.53;;;7.00;99.30;;;;;;5052674;28;20374;-74
2021/03/06 12:25:41;;;;;;;3.40;1.60;;;6.90;99.60;;;;;;5052791;28;20044;-72
2021/03/06 12:28:07;;;;;;;4.55;1.80;;;6.90;99.80;;;;;;5036226;28;20057;-73
2021/03/06 12:30:33;;;;;;;5.72;2.00;;;6.90;99.80;;;;;;5026507;28;20115;-74
2021/03/06 12:32:59;;;;;;;2.92;1.60;;;6.90;99.70;;;;;;5052978;28;20037;-71
2021/03/06 12:35:26;;;;;;;3.85;1.65;;;6.90;99.40;;;;;;5035343;28;20064;-71
2021/03/06 12:37:52;;;;;;;3.58;1.50;;;6.80;99.10;;;;;;5034911;28;20044;-74
2021/03/06 12:40:18;;;;;;;3.28;1.45;;;6.70;99.10;;;;;;5030577;28;20053;-73
2021/03/06 12:42:43;;;;;;;3.70;1.70;;;6.70;99.20;;;;;;5001558;28;20421;-73
2021/03/06 12:45:11;;;;;;;3.65;1.60;;;6.60;99.50;;;;;;5033072;28;20071;-74
2021/03/06 12:47:37;;;;;;;3.67;1.80;;;6.50;99.80;;;;;;5017603;28;20068;-73
2021/03/06 12:50:04;;;;;;;;;;;6.50;99.90;;;;;;5045820;28;20123;-75
2021/03/06 12:52:30;;;;;;;7.05;1.75;;;6.50;99.90;;;;;;5035781;28;19990;-74
2021/03/06 12:54:56;;;;;;;3.53;1.98;;;6.40;99.90;;;;;;5027750;28;20033;-73
2021/03/06 12:57:22;;;;;;;3.65;2.10;;;6.50;99.90;;;;;;5034116;28;20024;-74
2021/03/06 12:59:49;;;;;;;5.95;2.83;;;6.50;99.90;;;;;;5047627;28;20052;-74
2021/03/06 13:02:15;;;;;;;2.65;1.50;;;6.50;99.90;;;;;;5029543;28;20037;-75
2021/03/06 13:04:41;;;;;;;4.40;2.10;;;6.50;99.80;;;;;;5029762;28;20076;-74
2021/03/06 13:07:07;;;;;;;3.53;2.10;;;6.60;99.80;;;;;;5050080;28;20061;-74
2021/03/06 13:09:33;;;;;;;4.28;2.00;;;7.00;99.70;;;;;;5048028;28;20052;-75
2021/03/06 13:11:59;;;;;;;2.55;1.52;;;6.70;99.90;;;;;;5033060;28;20049;-73